Bunker Hill, Kansas
Current Conditions -  °F | °C
As of 5:53 PM on Wednesday 28 Jan 2015 (Local Time) from KRSL Reporting Station
Clear Clear  
Wind Chill: 65°   Ceiling: Unl
Heat Index: 65°   Visibility: 10mi
Dew Point: 31°   Wind: 18mph
Humidity: 28%   Direction: 300°WNW
Pressure: 29.83"   Gusts: NA
Location:  38.88°N, 98.7°W
Report Text: KRSL 282353Z AUTO 30016KT 10SM CLR 18/M01 A2983 RMK AO2 PK WND 31028/2308 SLP101 T01831006 10228 20178 53017
Loading
Personal Weather Stations






























Interactive Weather Map New forecast layout! Learn more

10-Day Weather Forecast

Advertisements
Track Severe Weather on mobile